sensor_id;sensor_type;location;lat;lon;timestamp;temperature;humidity
34766;DHT22;20984;43.508;1.504;2023-02-28T00:01:27;1.80;99.90
34766;DHT22;20984;43.508;1.504;2023-02-28T00:03:53;1.80;99.90
34766;DHT22;20984;43.508;1.504;2023-02-28T00:06:18;1.80;99.90
34766;DHT22;20984;43.508;1.504;2023-02-28T00:08:45;1.80;99.90
34766;DHT22;20984;43.508;1.504;2023-02-28T00:11:13;1.80;99.90
34766;DHT22;20984;43.508;1.504;2023-02-28T00:13:42;1.80;99.90
34766;DHT22;20984;43.508;1.504;2023-02-28T00:16:13;1.80;99.90
34766;DHT22;20984;43.508;1.504;2023-02-28T00:18:39;1.80;99.90
34766;DHT22;20984;43.508;1.504;2023-02-28T00:21:05;1.80;99.90
34766;DHT22;20984;43.508;1.504;2023-02-28T00:23:31;1.80;99.90
34766;DHT22;20984;43.508;1.504;2023-02-28T00:25:57;1.80;99.90
34766;DHT22;20984;43.508;1.504;2023-02-28T00:28:23;1.80;99.90
34766;DHT22;20984;43.508;1.504;2023-02-28T00:30:49;1.80;99.90
34766;DHT22;20984;43.508;1.504;2023-02-28T00:33:15;1.80;99.90
34766;DHT22;20984;43.508;1.504;2023-02-28T00:35:41;1.70;99.90
34766;DHT22;20984;43.508;1.504;2023-02-28T00:38:07;1.70;99.90
34766;DHT22;20984;43.508;1.504;2023-02-28T00:40:32;1.70;99.90
34766;DHT22;20984;43.508;1.504;2023-02-28T00:42:58;1.70;99.90
34766;DHT22;20984;43.508;1.504;2023-02-28T00:45:24;1.60;99.90
34766;DHT22;20984;43.508;1.504;2023-02-28T00:50:37;1.60;99.90
34766;DHT22;20984;43.508;1.504;2023-02-28T00:53:02;1.60;99.90
34766;DHT22;20984;43.508;1.504;2023-02-28T00:55:28;1.50;99.90
34766;DHT22;20984;43.508;1.504;2023-02-28T00:57:54;1.50;99.90
34766;DHT22;20984;43.508;1.504;2023-02-28T01:00:19;1.50;99.90
34766;DHT22;20984;43.508;1.504;2023-02-28T01:02:45;1.40;99.90
34766;DHT22;20984;43.508;1.504;2023-02-28T01:05:11;1.40;99.90
34766;DHT22;20984;43.508;1.504;2023-02-28T01:07:36;1.40;99.90
34766;DHT22;20984;43.508;1.504;2023-02-28T01:10:04;1.40;99.90
34766;DHT22;20984;43.508;1.504;2023-02-28T01:12:29;1.40;99.90
34766;DHT22;20984;43.508;1.504;2023-02-28T01:14:55;1.40;99.90
34766;DHT22;20984;43.508;1.504;2023-02-28T01:17:21;1.40;99.90
34766;DHT22;20984;43.508;1.504;2023-02-28T01:19:46;1.40;99.90
34766;DHT22;20984;43.508;1.504;2023-02-28T01:22:12;1.40;99.90
34766;DHT22;20984;43.508;1.504;2023-02-28T01:24:37;1.40;99.90
34766;DHT22;20984;43.508;1.504;2023-02-28T01:27:03;1.40;99.90
34766;DHT22;20984;43.508;1.504;2023-02-28T01:29:29;1.40;99.90
34766;DHT22;20984;43.508;1.504;2023-02-28T01:31:54;1.40;99.90
34766;DHT22;20984;43.508;1.504;2023-02-28T01:34:20;1.40;99.90
34766;DHT22;20984;43.508;1.504;2023-02-28T01:36:46;1.40;99.90
34766;DHT22;20984;43.508;1.504;2023-02-28T01:39:12;1.40;99.90
34766;DHT22;20984;43.508;1.504;2023-02-28T01:41:38;1.40;99.90
34766;DHT22;20984;43.508;1.504;2023-02-28T01:47:11;1.40;99.90
34766;DHT22;20984;43.508;1.504;2023-02-28T01:49:36;1.40;99.90
34766;DHT22;20984;43.508;1.504;2023-02-28T01:52:02;1.40;99.90
34766;DHT22;20984;43.508;1.504;2023-02-28T01:54:31;1.40;99.90
34766;DHT22;20984;43.508;1.504;2023-02-28T01:57:07;1.40;99.90
34766;DHT22;20984;43.508;1.504;2023-02-28T01:59:59;1.40;99.90
34766;DHT22;20984;43.508;1.504;2023-02-28T02:02:27;1.40;99.90
34766;DHT22;20984;43.508;1.504;2023-02-28T02:05:09;1.40;99.90
34766;DHT22;20984;43.508;1.504;2023-02-28T02:07:40;1.40;99.90
34766;DHT22;20984;43.508;1.504;2023-02-28T02:10:15;1.50;99.90
34766;DHT22;20984;43.508;1.504;2023-02-28T02:18:43;1.50;99.90
34766;DHT22;20984;43.508;1.504;2023-02-28T02:24:11;1.50;99.90
34766;DHT22;20984;43.508;1.504;2023-02-28T02:40:43;1.60;99.90
34766;DHT22;20984;43.508;1.504;2023-02-28T02:44:04;1.60;99.90
34766;DHT22;20984;43.508;1.504;2023-02-28T02:46:23;1.60;99.90
34766;DHT22;20984;43.508;1.504;2023-02-28T02:48:51;1.60;99.90
34766;DHT22;20984;43.508;1.504;2023-02-28T02:51:21;1.60;99.90
34766;DHT22;20984;43.508;1.504;2023-02-28T02:53:55;1.60;99.90
34766;DHT22;20984;43.508;1.504;2023-02-28T02:56:26;1.60;99.90
34766;DHT22;20984;43.508;1.504;2023-02-28T02:58:55;1.60;99.90
34766;DHT22;20984;43.508;1.504;2023-02-28T03:01:23;1.60;99.90
34766;DHT22;20984;43.508;1.504;2023-02-28T03:03:58;1.60;99.90
34766;DHT22;20984;43.508;1.504;2023-02-28T03:06:25;1.60;99.90
34766;DHT22;20984;43.508;1.504;2023-02-28T03:08:51;1.70;99.90
34766;DHT22;20984;43.508;1.504;2023-02-28T03:11:18;1.70;99.90
34766;DHT22;20984;43.508;1.504;2023-02-28T03:27:22;1.50;99.90
34766;DHT22;20984;43.508;1.504;2023-02-28T03:33:14;1.50;99.90
34766;DHT22;20984;43.508;1.504;2023-02-28T03:36:01;1.50;99.90
34766;DHT22;20984;43.508;1.504;2023-02-28T03:38:40;1.50;99.90
34766;DHT22;20984;43.508;1.504;2023-02-28T03:41:13;1.50;99.90
34766;DHT22;20984;43.508;1.504;2023-02-28T03:43:43;1.40;99.90
34766;DHT22;20984;43.508;1.504;2023-02-28T03:46:12;1.40;99.90
34766;DHT22;20984;43.508;1.504;2023-02-28T03:48:45;1.40;99.90
34766;DHT22;20984;43.508;1.504;2023-02-28T03:51:21;1.50;99.90
34766;DHT22;20984;43.508;1.504;2023-02-28T03:53:52;1.40;99.90
34766;DHT22;20984;43.508;1.504;2023-02-28T03:56:20;1.40;99.90
34766;DHT22;20984;43.508;1.504;2023-02-28T03:59:28;1.50;99.90
34766;DHT22;20984;43.508;1.504;2023-02-28T04:01:38;1.50;99.90
34766;DHT22;20984;43.508;1.504;2023-02-28T04:04:07;1.60;99.90
34766;DHT22;20984;43.508;1.504;2023-02-28T04:06:34;1.50;99.90
34766;DHT22;20984;43.508;1.504;2023-02-28T04:09:00;1.60;99.90
34766;DHT22;20984;43.508;1.504;2023-02-28T04:13:51;1.60;99.90
34766;DHT22;20984;43.508;1.504;2023-02-28T04:16:18;1.60;99.90
34766;DHT22;20984;43.508;1.504;2023-02-28T04:18:44;1.60;99.90
34766;DHT22;20984;43.508;1.504;2023-02-28T04:21:10;1.60;99.90
34766;DHT22;20984;43.508;1.504;2023-02-28T04:23:36;1.50;99.90
34766;DHT22;20984;43.508;1.504;2023-02-28T04:26:02;1.60;99.90
34766;DHT22;20984;43.508;1.504;2023-02-28T04:28:29;1.50;99.90
34766;DHT22;20984;43.508;1.504;2023-02-28T04:31:00;1.50;99.90
34766;DHT22;20984;43.508;1.504;2023-02-28T04:33:26;1.50;99.90
34766;DHT22;20984;43.508;1.504;2023-02-28T04:36:02;1.50;99.90
34766;DHT22;20984;43.508;1.504;2023-02-28T04:38:32;1.50;99.90
34766;DHT22;20984;43.508;1.504;2023-02-28T04:40:58;1.50;99.90
34766;DHT22;20984;43.508;1.504;2023-02-28T04:43:26;1.50;99.90
34766;DHT22;20984;43.508;1.504;2023-02-28T04:45:53;1.40;99.90
34766;DHT22;20984;43.508;1.504;2023-02-28T04:48:25;1.40;99.90
34766;DHT22;20984;43.508;1.504;2023-02-28T04:50:51;1.40;99.90
34766;DHT22;20984;43.508;1.504;2023-02-28T04:53:17;1.40;99.90
34766;DHT22;20984;43.508;1.504;2023-02-28T04:55:43;1.30;99.90
34766;DHT22;20984;43.508;1.504;2023-02-28T04:58:09;1.30;99.90
34766;DHT22;20984;43.508;1.504;2023-02-28T05:00:35;1.20;99.90
34766;DHT22;20984;43.508;1.504;2023-02-28T05:03:01;1.20;99.90
34766;DHT22;20984;43.508;1.504;2023-02-28T05:05:27;1.10;99.90
34766;DHT22;20984;43.508;1.504;2023-02-28T05:07:52;1.00;99.90
34766;DHT22;20984;43.508;1.504;2023-02-28T05:10:19;1.00;99.90
34766;DHT22;20984;43.508;1.504;2023-02-28T05:12:45;0.90;99.90
34766;DHT22;20984;43.508;1.504;2023-02-28T05:15:14;0.90;99.90
34766;DHT22;20984;43.508;1.504;2023-02-28T05:17:40;0.80;99.90
34766;DHT22;20984;43.508;1.504;2023-02-28T05:20:07;0.80;99.90
34766;DHT22;20984;43.508;1.504;2023-02-28T05:22:36;0.80;99.90
34766;DHT22;20984;43.508;1.504;2023-02-28T05:25:03;0.70;99.90
34766;DHT22;20984;43.508;1.504;2023-02-28T05:27:30;0.70;99.90
34766;DHT22;20984;43.508;1.504;2023-02-28T05:29:56;0.70;99.90
34766;DHT22;20984;43.508;1.504;2023-02-28T05:32:21;0.60;99.90
34766;DHT22;20984;43.508;1.504;2023-02-28T05:34:47;0.60;99.90
34766;DHT22;20984;43.508;1.504;2023-02-28T05:37:14;0.50;99.90
34766;DHT22;20984;43.508;1.504;2023-02-28T05:39:41;0.50;99.90
34766;DHT22;20984;43.508;1.504;2023-02-28T05:42:07;0.50;99.90
34766;DHT22;20984;43.508;1.504;2023-02-28T05:44:33;0.40;99.90
34766;DHT22;20984;43.508;1.504;2023-02-28T05:46:59;0.30;99.90
34766;DHT22;20984;43.508;1.504;2023-02-28T05:49:25;0.30;99.90
34766;DHT22;20984;43.508;1.504;2023-02-28T05:51:50;0.20;99.90
34766;DHT22;20984;43.508;1.504;2023-02-28T05:54:16;0.20;99.90
34766;DHT22;20984;43.508;1.504;2023-02-28T05:56:42;0.20;99.90
34766;DHT22;20984;43.508;1.504;2023-02-28T05:59:11;0.20;99.90
34766;DHT22;20984;43.508;1.504;2023-02-28T06:01:45;0.20;99.90
34766;DHT22;20984;43.508;1.504;2023-02-28T06:04:15;0.20;99.90
34766;DHT22;20984;43.508;1.504;2023-02-28T06:06:44;0.20;99.90
34766;DHT22;20984;43.508;1.504;2023-02-28T06:09:10;0.20;99.90
34766;DHT22;20984;43.508;1.504;2023-02-28T06:11:36;0.10;99.90
34766;DHT22;20984;43.508;1.504;2023-02-28T06:14:02;0.10;99.90
34766;DHT22;20984;43.508;1.504;2023-02-28T06:16:29;0.10;99.90
34766;DHT22;20984;43.508;1.504;2023-02-28T06:18:57;0.10;99.90
34766;DHT22;20984;43.508;1.504;2023-02-28T06:21:23;0.00;99.90
34766;DHT22;20984;43.508;1.504;2023-02-28T06:23:49;0.10;99.90
34766;DHT22;20984;43.508;1.504;2023-02-28T06:26:15;0.10;99.90
34766;DHT22;20984;43.508;1.504;2023-02-28T06:28:41;0.00;99.90
34766;DHT22;20984;43.508;1.504;2023-02-28T06:31:12;0.00;99.90
34766;DHT22;20984;43.508;1.504;2023-02-28T06:33:38;0.00;99.90
34766;DHT22;20984;43.508;1.504;2023-02-28T06:36:05;0.00;99.90
34766;DHT22;20984;43.508;1.504;2023-02-28T06:38:32;0.00;99.90
34766;DHT22;20984;43.508;1.504;2023-02-28T06:40:59;0.00;99.90
34766;DHT22;20984;43.508;1.504;2023-02-28T06:43:27;0.00;99.90
34766;DHT22;20984;43.508;1.504;2023-02-28T06:45:56;0.10;99.90
34766;DHT22;20984;43.508;1.504;2023-02-28T06:48:22;0.10;99.90
34766;DHT22;20984;43.508;1.504;2023-02-28T06:50:48;0.10;99.90
34766;DHT22;20984;43.508;1.504;2023-02-28T06:53:13;0.20;99.90
34766;DHT22;20984;43.508;1.504;2023-02-28T06:55:40;0.30;99.90
34766;DHT22;20984;43.508;1.504;2023-02-28T06:58:06;0.30;99.90
34766;DHT22;20984;43.508;1.504;2023-02-28T07:00:43;0.40;99.90
34766;DHT22;20984;43.508;1.504;2023-02-28T07:03:10;0.50;99.90
34766;DHT22;20984;43.508;1.504;2023-02-28T07:05:37;0.50;99.90
34766;DHT22;20984;43.508;1.504;2023-02-28T07:08:03;0.50;99.90
34766;DHT22;20984;43.508;1.504;2023-02-28T07:10:30;0.60;99.90
34766;DHT22;20984;43.508;1.504;2023-02-28T07:12:55;0.60;99.90
34766;DHT22;20984;43.508;1.504;2023-02-28T07:15:21;0.70;99.90
34766;DHT22;20984;43.508;1.504;2023-02-28T07:17:47;0.70;99.90
34766;DHT22;20984;43.508;1.504;2023-02-28T07:20:12;0.70;99.90
34766;DHT22;20984;43.508;1.504;2023-02-28T07:22:38;0.70;99.90
34766;DHT22;20984;43.508;1.504;2023-02-28T07:25:05;0.80;99.90
34766;DHT22;20984;43.508;1.504;2023-02-28T07:27:30;0.80;99.90
34766;DHT22;20984;43.508;1.504;2023-02-28T07:29:56;0.90;99.90
34766;DHT22;20984;43.508;1.504;2023-02-28T07:32:22;0.90;99.90
34766;DHT22;20984;43.508;1.504;2023-02-28T07:34:48;1.00;99.90
34766;DHT22;20984;43.508;1.504;2023-02-28T07:37:14;1.00;99.90
34766;DHT22;20984;43.508;1.504;2023-02-28T07:39:40;1.10;99.90
34766;DHT22;20984;43.508;1.504;2023-02-28T07:42:09;1.10;99.90
34766;DHT22;20984;43.508;1.504;2023-02-28T07:44:37;1.10;99.90
34766;DHT22;20984;43.508;1.504;2023-02-28T07:47:09;1.10;99.90
34766;DHT22;20984;43.508;1.504;2023-02-28T07:49:38;1.10;99.90
34766;DHT22;20984;43.508;1.504;2023-02-28T07:52:05;1.10;99.90
34766;DHT22;20984;43.508;1.504;2023-02-28T07:54:32;1.20;99.90
34766;DHT22;20984;43.508;1.504;2023-02-28T07:56:58;1.20;99.90
34766;DHT22;20984;43.508;1.504;2023-02-28T07:59:24;1.30;99.90
34766;DHT22;20984;43.508;1.504;2023-02-28T08:01:50;1.40;99.90
34766;DHT22;20984;43.508;1.504;2023-02-28T08:04:18;1.40;99.90
34766;DHT22;20984;43.508;1.504;2023-02-28T08:06:44;1.50;99.90
34766;DHT22;20984;43.508;1.504;2023-02-28T08:09:10;1.60;99.90
34766;DHT22;20984;43.508;1.504;2023-02-28T08:11:37;1.60;99.90
34766;DHT22;20984;43.508;1.504;2023-02-28T08:14:02;1.70;99.90
34766;DHT22;20984;43.508;1.504;2023-02-28T08:16:28;1.80;99.90
34766;DHT22;20984;43.508;1.504;2023-02-28T08:18:54;1.80;99.90
34766;DHT22;20984;43.508;1.504;2023-02-28T08:21:20;1.90;99.90
34766;DHT22;20984;43.508;1.504;2023-02-28T08:23:47;2.00;99.90
34766;DHT22;20984;43.508;1.504;2023-02-28T08:26:14;2.10;99.90
34766;DHT22;20984;43.508;1.504;2023-02-28T08:28:40;2.20;99.90
34766;DHT22;20984;43.508;1.504;2023-02-28T08:31:10;2.20;99.90
34766;DHT22;20984;43.508;1.504;2023-02-28T08:33:36;2.30;99.90
34766;DHT22;20984;43.508;1.504;2023-02-28T08:36:02;2.40;99.90
34766;DHT22;20984;43.508;1.504;2023-02-28T08:38:28;2.50;99.90
34766;DHT22;20984;43.508;1.504;2023-02-28T08:40:58;2.50;99.90
34766;DHT22;20984;43.508;1.504;2023-02-28T08:43:24;2.50;99.90
34766;DHT22;20984;43.508;1.504;2023-02-28T08:45:54;2.60;99.90
34766;DHT22;20984;43.508;1.504;2023-02-28T08:48:25;2.60;99.90
34766;DHT22;20984;43.508;1.504;2023-02-28T08:50:59;2.70;99.90
34766;DHT22;20984;43.508;1.504;2023-02-28T08:53:25;2.90;99.90
34766;DHT22;20984;43.508;1.504;2023-02-28T08:55:58;3.00;99.90
34766;DHT22;20984;43.508;1.504;2023-02-28T08:58:25;3.10;99.90
34766;DHT22;20984;43.508;1.504;2023-02-28T09:00:51;3.20;99.90
34766;DHT22;20984;43.508;1.504;2023-02-28T09:03:16;3.40;99.90
34766;DHT22;20984;43.508;1.504;2023-02-28T09:05:53;3.60;99.90
34766;DHT22;20984;43.508;1.504;2023-02-28T09:08:19;3.60;99.90
34766;DHT22;20984;43.508;1.504;2023-02-28T09:10:44;3.60;99.90
34766;DHT22;20984;43.508;1.504;2023-02-28T09:13:10;3.60;99.90
34766;DHT22;20984;43.508;1.504;2023-02-28T09:15:37;3.60;99.90
34766;DHT22;20984;43.508;1.504;2023-02-28T09:18:03;3.70;99.90
34766;DHT22;20984;43.508;1.504;2023-02-28T09:20:29;3.90;99.90
34766;DHT22;20984;43.508;1.504;2023-02-28T09:22:55;4.00;99.90
34766;DHT22;20984;43.508;1.504;2023-02-28T09:25:21;4.10;99.90
34766;DHT22;20984;43.508;1.504;2023-02-28T09:27:46;4.20;99.90
34766;DHT22;20984;43.508;1.504;2023-02-28T09:30:13;4.30;99.90
34766;DHT22;20984;43.508;1.504;2023-02-28T09:32:38;4.30;99.90
34766;DHT22;20984;43.508;1.504;2023-02-28T09:35:05;4.40;99.90
34766;DHT22;20984;43.508;1.504;2023-02-28T09:37:30;4.30;99.90
34766;DHT22;20984;43.508;1.504;2023-02-28T09:39:56;4.20;99.90
34766;DHT22;20984;43.508;1.504;2023-02-28T09:42:31;4.30;99.90
34766;DHT22;20984;43.508;1.504;2023-02-28T09:44:59;4.20;99.90
34766;DHT22;20984;43.508;1.504;2023-02-28T09:52:49;4.40;99.90
34766;DHT22;20984;43.508;1.504;2023-02-28T09:55:29;4.30;99.90
34766;DHT22;20984;43.508;1.504;2023-02-28T09:57:56;4.30;99.90
34766;DHT22;20984;43.508;1.504;2023-02-28T10:00:32;4.30;99.90
34766;DHT22;20984;43.508;1.504;2023-02-28T10:05:37;4.50;99.90
34766;DHT22;20984;43.508;1.504;2023-02-28T10:08:25;4.50;99.90
34766;DHT22;20984;43.508;1.504;2023-02-28T10:10:55;4.70;99.90
34766;DHT22;20984;43.508;1.504;2023-02-28T10:15:53;5.00;99.90
34766;DHT22;20984;43.508;1.504;2023-02-28T10:18:24;5.20;99.90
34766;DHT22;20984;43.508;1.504;2023-02-28T10:20:53;5.30;99.90
34766;DHT22;20984;43.508;1.504;2023-02-28T10:23:28;5.20;99.90
34766;DHT22;20984;43.508;1.504;2023-02-28T10:26:04;5.30;99.90
34766;DHT22;20984;43.508;1.504;2023-02-28T10:28:31;5.30;99.90
34766;DHT22;20984;43.508;1.504;2023-02-28T10:30:57;5.30;99.90
34766;DHT22;20984;43.508;1.504;2023-02-28T10:35:50;5.30;99.90
34766;DHT22;20984;43.508;1.504;2023-02-28T10:38:25;5.30;99.90
34766;DHT22;20984;43.508;1.504;2023-02-28T10:40:51;5.30;99.90
34766;DHT22;20984;43.508;1.504;2023-02-28T10:51:24;5.60;99.90
34766;DHT22;20984;43.508;1.504;2023-02-28T10:53:54;5.50;99.90
34766;DHT22;20984;43.508;1.504;2023-02-28T10:56:22;5.50;99.90
34766;DHT22;20984;43.508;1.504;2023-02-28T11:03:50;5.60;99.90
34766;DHT22;20984;43.508;1.504;2023-02-28T11:06:26;5.60;99.90
34766;DHT22;20984;43.508;1.504;2023-02-28T11:08:54;5.60;99.90
34766;DHT22;20984;43.508;1.504;2023-02-28T11:11:22;5.50;99.90
34766;DHT22;20984;43.508;1.504;2023-02-28T11:13:54;5.50;99.90
34766;DHT22;20984;43.508;1.504;2023-02-28T11:16:20;5.60;99.90
34766;DHT22;20984;43.508;1.504;2023-02-28T11:18:53;5.60;99.90
34766;DHT22;20984;43.508;1.504;2023-02-28T11:23:56;5.60;99.90
34766;DHT22;20984;43.508;1.504;2023-02-28T11:26:39;5.70;99.90
34766;DHT22;20984;43.508;1.504;2023-02-28T11:29:18;5.70;99.90
34766;DHT22;20984;43.508;1.504;2023-02-28T11:34:45;6.00;99.90
34766;DHT22;20984;43.508;1.504;2023-02-28T11:37:16;6.20;99.90
34766;DHT22;20984;43.508;1.504;2023-02-28T11:39:44;6.30;99.90
34766;DHT22;20984;43.508;1.504;2023-02-28T11:51:03;6.10;99.90
34766;DHT22;20984;43.508;1.504;2023-02-28T11:53:55;5.80;99.90
34766;DHT22;20984;43.508;1.504;2023-02-28T11:56:44;5.70;99.90
34766;DHT22;20984;43.508;1.504;2023-02-28T12:02:28;5.80;99.90
34766;DHT22;20984;43.508;1.504;2023-02-28T12:10:28;6.00;99.90
34766;DHT22;20984;43.508;1.504;2023-02-28T12:13:16;5.90;99.90
34766;DHT22;20984;43.508;1.504;2023-02-28T12:18:39;5.80;99.90
34766;DHT22;20984;43.508;1.504;2023-02-28T12:26:44;6.20;99.90
34766;DHT22;20984;43.508;1.504;2023-02-28T12:29:19;6.00;99.90
34766;DHT22;20984;43.508;1.504;2023-02-28T12:37:27;6.10;99.90
34766;DHT22;20984;43.508;1.504;2023-02-28T12:40:01;6.20;99.60
34766;DHT22;20984;43.508;1.504;2023-02-28T12:42:34;6.40;99.30
34766;DHT22;20984;43.508;1.504;2023-02-28T12:45:07;6.60;98.50
34766;DHT22;20984;43.508;1.504;2023-02-28T12:47:35;6.60;97.70
34766;DHT22;20984;43.508;1.504;2023-02-28T12:50:09;6.50;97.70
34766;DHT22;20984;43.508;1.504;2023-02-28T12:53:13;6.50;98.00
34766;DHT22;20984;43.508;1.504;2023-02-28T12:55:48;6.50;97.50
34766;DHT22;20984;43.508;1.504;2023-02-28T12:58:39;6.50;97.80
34766;DHT22;20984;43.508;1.504;2023-02-28T13:04:46;6.50;97.60
34766;DHT22;20984;43.508;1.504;2023-02-28T13:09:56;6.50;97.60
34766;DHT22;20984;43.508;1.504;2023-02-28T13:12:22;6.50;97.50
34766;DHT22;20984;43.508;1.504;2023-02-28T13:14:49;6.60;97.00
34766;DHT22;20984;43.508;1.504;2023-02-28T13:17:23;6.50;96.70
34766;DHT22;20984;43.508;1.504;2023-02-28T13:24:55;6.40;95.90
34766;DHT22;20984;43.508;1.504;2023-02-28T13:29:51;6.50;96.30
34766;DHT22;20984;43.508;1.504;2023-02-28T14:06:33;6.30;94.40
34766;DHT22;20984;43.508;1.504;2023-02-28T14:09:05;6.40;94.80
34766;DHT22;20984;43.508;1.504;2023-02-28T14:11:36;6.60;94.80
34766;DHT22;20984;43.508;1.504;2023-02-28T14:14:04;6.80;93.90
34766;DHT22;20984;43.508;1.504;2023-02-28T14:16:47;6.70;93.30
34766;DHT22;20984;43.508;1.504;2023-02-28T14:19:25;6.80;93.00
34766;DHT22;20984;43.508;1.504;2023-02-28T14:24:46;6.80;93.50
34766;DHT22;20984;43.508;1.504;2023-02-28T14:32:51;6.50;92.50
34766;DHT22;20984;43.508;1.504;2023-02-28T14:37:51;6.90;92.50
34766;DHT22;20984;43.508;1.504;2023-02-28T14:40:29;6.90;92.10
34766;DHT22;20984;43.508;1.504;2023-02-28T14:43:01;7.00;92.30
34766;DHT22;20984;43.508;1.504;2023-02-28T14:45:29;7.00;91.90
34766;DHT22;20984;43.508;1.504;2023-02-28T14:47:57;7.00;92.00
34766;DHT22;20984;43.508;1.504;2023-02-28T14:50:35;6.80;92.20
34766;DHT22;20984;43.508;1.504;2023-02-28T14:53:01;6.70;92.40
34766;DHT22;20984;43.508;1.504;2023-02-28T14:55:32;6.50;93.20
34766;DHT22;20984;43.508;1.504;2023-02-28T14:58:04;6.30;93.60
34766;DHT22;20984;43.508;1.504;2023-02-28T15:00:46;6.10;93.70
34766;DHT22;20984;43.508;1.504;2023-02-28T15:03:21;6.00;94.10
34766;DHT22;20984;43.508;1.504;2023-02-28T15:05:59;6.00;94.10
34766;DHT22;20984;43.508;1.504;2023-02-28T15:08:25;5.90;94.10
34766;DHT22;20984;43.508;1.504;2023-02-28T15:13:51;5.80;95.00
34766;DHT22;20984;43.508;1.504;2023-02-28T15:16:39;5.90;94.70
34766;DHT22;20984;43.508;1.504;2023-02-28T15:21:40;5.80;93.60
34766;DHT22;20984;43.508;1.504;2023-02-28T15:24:27;5.80;94.10
34766;DHT22;20984;43.508;1.504;2023-02-28T15:27:02;5.80;93.50
34766;DHT22;20984;43.508;1.504;2023-02-28T15:29:29;5.80;93.60
34766;DHT22;20984;43.508;1.504;2023-02-28T15:34:36;5.90;93.00
34766;DHT22;20984;43.508;1.504;2023-02-28T15:37:24;5.90;93.00
34766;DHT22;20984;43.508;1.504;2023-02-28T15:39:52;5.80;93.00
34766;DHT22;20984;43.508;1.504;2023-02-28T15:42:21;5.80;93.50
34766;DHT22;20984;43.508;1.504;2023-02-28T15:44:47;5.70;93.10
34766;DHT22;20984;43.508;1.504;2023-02-28T15:47:19;5.70;93.00
34766;DHT22;20984;43.508;1.504;2023-02-28T15:49:53;5.70;93.20
34766;DHT22;20984;43.508;1.504;2023-02-28T15:54:54;5.70;93.40
34766;DHT22;20984;43.508;1.504;2023-02-28T15:57:25;5.60;92.60
34766;DHT22;20984;43.508;1.504;2023-02-28T15:59:55;5.60;92.90
34766;DHT22;20984;43.508;1.504;2023-02-28T16:07:27;5.50;93.50
34766;DHT22;20984;43.508;1.504;2023-02-28T16:09:53;5.50;93.40
34766;DHT22;20984;43.508;1.504;2023-02-28T16:12:20;5.50;93.60
34766;DHT22;20984;43.508;1.504;2023-02-28T16:14:51;5.50;93.20
34766;DHT22;20984;43.508;1.504;2023-02-28T16:17:24;5.50;92.90
34766;DHT22;20984;43.508;1.504;2023-02-28T16:19:50;5.50;92.80
34766;DHT22;20984;43.508;1.504;2023-02-28T16:22:16;5.40;92.50
34766;DHT22;20984;43.508;1.504;2023-02-28T16:24:41;5.40;92.80
34766;DHT22;20984;43.508;1.504;2023-02-28T16:27:31;5.30;92.70
34766;DHT22;20984;43.508;1.504;2023-02-28T16:29:58;5.30;92.80
34766;DHT22;20984;43.508;1.504;2023-02-28T16:32:24;5.20;92.80
34766;DHT22;20984;43.508;1.504;2023-02-28T16:34:50;5.20;93.70
34766;DHT22;20984;43.508;1.504;2023-02-28T16:37:17;5.20;93.10
34766;DHT22;20984;43.508;1.504;2023-02-28T16:39:44;5.20;93.30
34766;DHT22;20984;43.508;1.504;2023-02-28T16:42:27;5.20;93.40
34766;DHT22;20984;43.508;1.504;2023-02-28T16:44:54;5.10;93.30
34766;DHT22;20984;43.508;1.504;2023-02-28T16:47:21;5.10;93.50
34766;DHT22;20984;43.508;1.504;2023-02-28T16:49:47;5.10;93.30
34766;DHT22;20984;43.508;1.504;2023-02-28T16:52:13;5.10;93.50
34766;DHT22;20984;43.508;1.504;2023-02-28T16:54:40;5.10;93.40
34766;DHT22;20984;43.508;1.504;2023-02-28T16:57:15;5.00;93.10
34766;DHT22;20984;43.508;1.504;2023-02-28T16:59:42;5.00;93.30
34766;DHT22;20984;43.508;1.504;2023-02-28T17:02:13;4.90;93.80
34766;DHT22;20984;43.508;1.504;2023-02-28T17:04:39;4.90;93.60
34766;DHT22;20984;43.508;1.504;2023-02-28T17:07:06;4.90;93.60
34766;DHT22;20984;43.508;1.504;2023-02-28T17:09:33;4.80;93.90
34766;DHT22;20984;43.508;1.504;2023-02-28T17:11:59;4.80;94.10
34766;DHT22;20984;43.508;1.504;2023-02-28T17:14:25;4.80;94.20
34766;DHT22;20984;43.508;1.504;2023-02-28T17:16:50;4.70;94.70
34766;DHT22;20984;43.508;1.504;2023-02-28T17:19:16;4.60;94.60
34766;DHT22;20984;43.508;1.504;2023-02-28T17:21:43;4.70;94.50
34766;DHT22;20984;43.508;1.504;2023-02-28T17:24:09;4.60;94.40
34766;DHT22;20984;43.508;1.504;2023-02-28T17:26:38;4.70;94.50
34766;DHT22;20984;43.508;1.504;2023-02-28T17:29:10;4.60;94.10
34766;DHT22;20984;43.508;1.504;2023-02-28T17:31:38;4.60;94.10
34766;DHT22;20984;43.508;1.504;2023-02-28T17:34:04;4.60;94.40
34766;DHT22;20984;43.508;1.504;2023-02-28T17:36:30;4.60;94.60
34766;DHT22;20984;43.508;1.504;2023-02-28T17:38:56;4.60;94.60
34766;DHT22;20984;43.508;1.504;2023-02-28T17:41:23;4.50;94.80
34766;DHT22;20984;43.508;1.504;2023-02-28T17:43:49;4.50;95.10
34766;DHT22;20984;43.508;1.504;2023-02-28T17:46:20;4.40;95.20
34766;DHT22;20984;43.508;1.504;2023-02-28T17:48:51;4.40;95.50
34766;DHT22;20984;43.508;1.504;2023-02-28T17:51:19;4.40;95.70
34766;DHT22;20984;43.508;1.504;2023-02-28T17:53:45;4.40;95.90
34766;DHT22;20984;43.508;1.504;2023-02-28T17:56:13;4.30;96.10
34766;DHT22;20984;43.508;1.504;2023-02-28T17:58:39;4.30;96.40
34766;DHT22;20984;43.508;1.504;2023-02-28T18:01:05;4.30;96.30
34766;DHT22;20984;43.508;1.504;2023-02-28T18:03:30;4.30;95.80
34766;DHT22;20984;43.508;1.504;2023-02-28T18:05:57;4.30;96.00
34766;DHT22;20984;43.508;1.504;2023-02-28T18:08:23;4.30;96.40
34766;DHT22;20984;43.508;1.504;2023-02-28T18:10:49;4.30;96.60
34766;DHT22;20984;43.508;1.504;2023-02-28T18:13:15;4.20;96.60
34766;DHT22;20984;43.508;1.504;2023-02-28T18:15:41;4.10;96.10
34766;DHT22;20984;43.508;1.504;2023-02-28T18:18:06;4.20;96.20
34766;DHT22;20984;43.508;1.504;2023-02-28T18:20:33;4.10;96.40
34766;DHT22;20984;43.508;1.504;2023-02-28T18:22:59;4.10;96.60
34766;DHT22;20984;43.508;1.504;2023-02-28T18:25:25;4.10;97.20
34766;DHT22;20984;43.508;1.504;2023-02-28T18:27:51;4.00;96.90
34766;DHT22;20984;43.508;1.504;2023-02-28T18:30:27;4.00;96.50
34766;DHT22;20984;43.508;1.504;2023-02-28T18:32:55;4.10;96.40
34766;DHT22;20984;43.508;1.504;2023-02-28T18:35:22;4.10;96.80
34766;DHT22;20984;43.508;1.504;2023-02-28T18:38:14;4.10;95.90
34766;DHT22;20984;43.508;1.504;2023-02-28T18:40:41;4.10;96.00
34766;DHT22;20984;43.508;1.504;2023-02-28T18:43:08;4.10;95.50
34766;DHT22;20984;43.508;1.504;2023-02-28T18:45:38;4.20;95.50
34766;DHT22;20984;43.508;1.504;2023-02-28T18:48:04;4.10;96.00
34766;DHT22;20984;43.508;1.504;2023-02-28T18:50:30;4.10;96.40
34766;DHT22;20984;43.508;1.504;2023-02-28T18:52:56;4.00;96.80
34766;DHT22;20984;43.508;1.504;2023-02-28T18:55:27;4.00;96.90
34766;DHT22;20984;43.508;1.504;2023-02-28T18:57:53;4.00;97.10
34766;DHT22;20984;43.508;1.504;2023-02-28T19:00:19;4.00;96.60
34766;DHT22;20984;43.508;1.504;2023-02-28T19:02:48;3.90;96.30